sensor_id;sensor_type;location;lat;lon;timestamp;temperature;humidity
12413;DHT22;13877;18.896;-99.222;2023-08-31T00:00:50;27.70;83.20
12413;DHT22;13877;18.896;-99.222;2023-08-31T00:03:19;27.80;84.70
12413;DHT22;13877;18.896;-99.222;2023-08-31T00:05:46;27.80;83.00
12413;DHT22;13877;18.896;-99.222;2023-08-31T00:08:13;27.70;82.90
12413;DHT22;13877;18.896;-99.222;2023-08-31T00:10:40;27.60;82.00
12413;DHT22;13877;18.896;-99.222;2023-08-31T00:13:11;27.50;83.80
12413;DHT22;13877;18.896;-99.222;2023-08-31T00:15:38;27.20;81.60
12413;DHT22;13877;18.896;-99.222;2023-08-31T00:18:07;27.00;80.80
12413;DHT22;13877;18.896;-99.222;2023-08-31T00:20:34;26.80;82.40
12413;DHT22;13877;18.896;-99.222;2023-08-31T00:23:01;26.60;83.00
12413;DHT22;13877;18.896;-99.222;2023-08-31T00:25:28;26.40;83.50
12413;DHT22;13877;18.896;-99.222;2023-08-31T00:27:55;26.10;83.40
12413;DHT22;13877;18.896;-99.222;2023-08-31T00:30:23;25.70;84.40
12413;DHT22;13877;18.896;-99.222;2023-08-31T00:32:55;25.40;86.50
12413;DHT22;13877;18.896;-99.222;2023-08-31T00:35:28;25.10;87.70
12413;DHT22;13877;18.896;-99.222;2023-08-31T00:37:55;24.90;88.70
12413;DHT22;13877;18.896;-99.222;2023-08-31T00:40:25;24.70;89.50
12413;DHT22;13877;18.896;-99.222;2023-08-31T00:42:51;24.60;90.00
12413;DHT22;13877;18.896;-99.222;2023-08-31T00:45:18;24.50;90.40
12413;DHT22;13877;18.896;-99.222;2023-08-31T00:47:47;24.40;90.80
12413;DHT22;13877;18.896;-99.222;2023-08-31T00:50:15;24.40;91.10
12413;DHT22;13877;18.896;-99.222;2023-08-31T00:52:43;24.30;91.30
12413;DHT22;13877;18.896;-99.222;2023-08-31T00:55:14;24.20;91.80
12413;DHT22;13877;18.896;-99.222;2023-08-31T00:57:44;24.10;91.80
12413;DHT22;13877;18.896;-99.222;2023-08-31T01:00:11;24.00;92.10
12413;DHT22;13877;18.896;-99.222;2023-08-31T01:02:49;23.90;92.20
12413;DHT22;13877;18.896;-99.222;2023-08-31T01:06:09;23.90;92.50
12413;DHT22;13877;18.896;-99.222;2023-08-31T01:11:16;23.60;93.10
12413;DHT22;13877;18.896;-99.222;2023-08-31T01:13:53;23.60;93.40
12413;DHT22;13877;18.896;-99.222;2023-08-31T01:16:24;23.60;93.60
12413;DHT22;13877;18.896;-99.222;2023-08-31T01:18:53;23.50;94.20
12413;DHT22;13877;18.896;-99.222;2023-08-31T01:21:50;23.40;95.40
12413;DHT22;13877;18.896;-99.222;2023-08-31T01:24:19;23.30;95.90
12413;DHT22;13877;18.896;-99.222;2023-08-31T01:26:46;23.30;96.80
12413;DHT22;13877;18.896;-99.222;2023-08-31T01:29:13;23.50;97.30
12413;DHT22;13877;18.896;-99.222;2023-08-31T01:31:44;23.50;97.70
12413;DHT22;13877;18.896;-99.222;2023-08-31T01:34:13;23.50;98.20
12413;DHT22;13877;18.896;-99.222;2023-08-31T01:36:44;23.40;98.30
12413;DHT22;13877;18.896;-99.222;2023-08-31T01:39:20;23.40;98.70
12413;DHT22;13877;18.896;-99.222;2023-08-31T01:41:58;23.30;98.50
12413;DHT22;13877;18.896;-99.222;2023-08-31T01:44:27;23.20;98.90
12413;DHT22;13877;18.896;-99.222;2023-08-31T01:47:03;23.10;99.20
12413;DHT22;13877;18.896;-99.222;2023-08-31T01:49:38;23.00;99.50
12413;DHT22;13877;18.896;-99.222;2023-08-31T01:52:06;23.00;99.60
12413;DHT22;13877;18.896;-99.222;2023-08-31T01:54:33;23.00;99.10
12413;DHT22;13877;18.896;-99.222;2023-08-31T01:57:00;23.10;98.90
12413;DHT22;13877;18.896;-99.222;2023-08-31T01:59:29;23.10;98.90
12413;DHT22;13877;18.896;-99.222;2023-08-31T02:01:56;23.20;99.30
12413;DHT22;13877;18.896;-99.222;2023-08-31T02:04:22;23.10;98.70
12413;DHT22;13877;18.896;-99.222;2023-08-31T02:06:49;23.10;98.80
12413;DHT22;13877;18.896;-99.222;2023-08-31T02:09:16;23.00;99.30
12413;DHT22;13877;18.896;-99.222;2023-08-31T02:11:43;23.00;98.80
12413;DHT22;13877;18.896;-99.222;2023-08-31T02:14:09;22.90;98.90
12413;DHT22;13877;18.896;-99.222;2023-08-31T02:16:36;23.00;98.80
12413;DHT22;13877;18.896;-99.222;2023-08-31T02:19:03;23.10;99.00
12413;DHT22;13877;18.896;-99.222;2023-08-31T02:21:30;23.10;98.90
12413;DHT22;13877;18.896;-99.222;2023-08-31T02:23:57;23.30;98.90
12413;DHT22;13877;18.896;-99.222;2023-08-31T02:26:24;23.30;99.00
12413;DHT22;13877;18.896;-99.222;2023-08-31T02:28:50;23.30;98.90
12413;DHT22;13877;18.896;-99.222;2023-08-31T02:31:17;23.20;99.20
12413;DHT22;13877;18.896;-99.222;2023-08-31T02:33:46;23.10;99.50
12413;DHT22;13877;18.896;-99.222;2023-08-31T02:36:14;23.10;99.20
12413;DHT22;13877;18.896;-99.222;2023-08-31T02:38:42;23.20;99.50
12413;DHT22;13877;18.896;-99.222;2023-08-31T02:41:09;23.10;99.70
12413;DHT22;13877;18.896;-99.222;2023-08-31T02:43:36;23.10;99.90
12413;DHT22;13877;18.896;-99.222;2023-08-31T02:46:03;23.00;99.90
12413;DHT22;13877;18.896;-99.222;2023-08-31T02:48:32;22.90;99.90
12413;DHT22;13877;18.896;-99.222;2023-08-31T02:51:00;23.00;99.90
12413;DHT22;13877;18.896;-99.222;2023-08-31T02:53:29;23.00;99.90
12413;DHT22;13877;18.896;-99.222;2023-08-31T02:56:05;23.00;99.90
12413;DHT22;13877;18.896;-99.222;2023-08-31T02:58:31;23.10;99.90
12413;DHT22;13877;18.896;-99.222;2023-08-31T03:01:12;23.10;99.90
12413;DHT22;13877;18.896;-99.222;2023-08-31T03:03:42;23.00;99.90
12413;DHT22;13877;18.896;-99.222;2023-08-31T03:06:11;23.00;99.90
12413;DHT22;13877;18.896;-99.222;2023-08-31T03:08:38;22.90;99.90
12413;DHT22;13877;18.896;-99.222;2023-08-31T03:11:06;22.90;99.90
12413;DHT22;13877;18.896;-99.222;2023-08-31T03:13:33;22.90;99.90
12413;DHT22;13877;18.896;-99.222;2023-08-31T03:16:00;23.00;99.90
12413;DHT22;13877;18.896;-99.222;2023-08-31T03:18:28;23.00;99.90
12413;DHT22;13877;18.896;-99.222;2023-08-31T03:20:56;23.00;99.90
12413;DHT22;13877;18.896;-99.222;2023-08-31T03:23:25;23.00;99.90
12413;DHT22;13877;18.896;-99.222;2023-08-31T03:25:52;23.00;99.90
12413;DHT22;13877;18.896;-99.222;2023-08-31T03:28:20;23.00;99.90
12413;DHT22;13877;18.896;-99.222;2023-08-31T03:30:54;23.00;99.90
12413;DHT22;13877;18.896;-99.222;2023-08-31T03:33:22;23.00;99.90
12413;DHT22;13877;18.896;-99.222;2023-08-31T03:35:49;23.10;99.90
12413;DHT22;13877;18.896;-99.222;2023-08-31T03:38:16;23.20;99.90
12413;DHT22;13877;18.896;-99.222;2023-08-31T03:40:53;23.20;99.90
12413;DHT22;13877;18.896;-99.222;2023-08-31T03:43:21;23.20;99.90
12413;DHT22;13877;18.896;-99.222;2023-08-31T03:45:48;23.20;99.90
12413;DHT22;13877;18.896;-99.222;2023-08-31T03:48:15;23.10;99.90
12413;DHT22;13877;18.896;-99.222;2023-08-31T03:50:42;23.00;99.90
12413;DHT22;13877;18.896;-99.222;2023-08-31T03:53:09;22.90;99.90
12413;DHT22;13877;18.896;-99.222;2023-08-31T03:55:36;22.70;99.90
12413;DHT22;13877;18.896;-99.222;2023-08-31T03:58:06;22.60;99.90
12413;DHT22;13877;18.896;-99.222;2023-08-31T04:00:34;22.60;99.90
12413;DHT22;13877;18.896;-99.222;2023-08-31T04:03:01;22.70;99.90
12413;DHT22;13877;18.896;-99.222;2023-08-31T04:05:27;22.80;99.90
12413;DHT22;13877;18.896;-99.222;2023-08-31T04:07:54;22.70;99.90
12413;DHT22;13877;18.896;-99.222;2023-08-31T04:10:21;22.50;99.90
12413;DHT22;13877;18.896;-99.222;2023-08-31T04:12:52;22.50;99.90
12413;DHT22;13877;18.896;-99.222;2023-08-31T04:15:20;22.50;99.90
12413;DHT22;13877;18.896;-99.222;2023-08-31T04:17:47;22.70;99.90
12413;DHT22;13877;18.896;-99.222;2023-08-31T04:20:16;22.90;99.90
12413;DHT22;13877;18.896;-99.222;2023-08-31T04:22:43;22.80;99.90
12413;DHT22;13877;18.896;-99.222;2023-08-31T04:25:09;22.80;99.90
12413;DHT22;13877;18.896;-99.222;2023-08-31T04:27:36;22.80;99.90
12413;DHT22;13877;18.896;-99.222;2023-08-31T04:30:06;22.70;99.90
12413;DHT22;13877;18.896;-99.222;2023-08-31T04:32:34;22.70;99.90
12413;DHT22;13877;18.896;-99.222;2023-08-31T04:35:03;22.60;99.90
12413;DHT22;13877;18.896;-99.222;2023-08-31T04:37:34;22.70;99.90
12413;DHT22;13877;18.896;-99.222;2023-08-31T04:40:01;22.70;99.90
12413;DHT22;13877;18.896;-99.222;2023-08-31T04:42:28;22.80;99.90
12413;DHT22;13877;18.896;-99.222;2023-08-31T04:44:54;22.90;99.90
12413;DHT22;13877;18.896;-99.222;2023-08-31T04:47:21;22.90;99.90
12413;DHT22;13877;18.896;-99.222;2023-08-31T04:49:49;22.90;99.90
12413;DHT22;13877;18.896;-99.222;2023-08-31T04:52:15;22.90;99.90
12413;DHT22;13877;18.896;-99.222;2023-08-31T04:54:42;23.00;99.90
12413;DHT22;13877;18.896;-99.222;2023-08-31T04:57:09;23.00;99.90
12413;DHT22;13877;18.896;-99.222;2023-08-31T04:59:36;23.00;99.90
12413;DHT22;13877;18.896;-99.222;2023-08-31T05:02:03;22.90;99.90
12413;DHT22;13877;18.896;-99.222;2023-08-31T05:04:30;23.00;99.90
12413;DHT22;13877;18.896;-99.222;2023-08-31T05:06:58;23.00;99.90
12413;DHT22;13877;18.896;-99.222;2023-08-31T05:09:25;23.00;99.90
12413;DHT22;13877;18.896;-99.222;2023-08-31T05:11:53;22.90;99.90
12413;DHT22;13877;18.896;-99.222;2023-08-31T05:14:19;22.90;99.90
12413;DHT22;13877;18.896;-99.222;2023-08-31T05:16:46;22.80;99.90
12413;DHT22;13877;18.896;-99.222;2023-08-31T05:19:13;22.70;99.90
12413;DHT22;13877;18.896;-99.222;2023-08-31T05:21:40;22.70;99.90
12413;DHT22;13877;18.896;-99.222;2023-08-31T05:24:07;22.60;99.90
12413;DHT22;13877;18.896;-99.222;2023-08-31T05:26:34;22.60;99.90
12413;DHT22;13877;18.896;-99.222;2023-08-31T05:29:01;22.60;99.90
12413;DHT22;13877;18.896;-99.222;2023-08-31T05:31:30;22.70;99.90
12413;DHT22;13877;18.896;-99.222;2023-08-31T05:33:57;22.60;99.90
12413;DHT22;13877;18.896;-99.222;2023-08-31T05:36:24;22.60;99.90
12413;DHT22;13877;18.896;-99.222;2023-08-31T05:38:51;22.70;99.90
12413;DHT22;13877;18.896;-99.222;2023-08-31T05:41:19;22.60;99.90
12413;DHT22;13877;18.896;-99.222;2023-08-31T05:43:45;22.50;99.90
12413;DHT22;13877;18.896;-99.222;2023-08-31T05:46:12;22.50;99.90
12413;DHT22;13877;18.896;-99.222;2023-08-31T05:48:39;22.40;99.90
12413;DHT22;13877;18.896;-99.222;2023-08-31T05:51:06;22.20;99.90
12413;DHT22;13877;18.896;-99.222;2023-08-31T05:53:33;22.10;99.90
12413;DHT22;13877;18.896;-99.222;2023-08-31T05:56:00;22.10;99.90
12413;DHT22;13877;18.896;-99.222;2023-08-31T05:58:34;22.20;99.90
12413;DHT22;13877;18.896;-99.222;2023-08-31T06:01:02;22.20;99.90
12413;DHT22;13877;18.896;-99.222;2023-08-31T06:03:30;22.20;99.90
12413;DHT22;13877;18.896;-99.222;2023-08-31T06:05:58;22.00;99.90
12413;DHT22;13877;18.896;-99.222;2023-08-31T06:08:25;21.80;99.90
12413;DHT22;13877;18.896;-99.222;2023-08-31T06:10:52;22.00;99.90
12413;DHT22;13877;18.896;-99.222;2023-08-31T06:13:19;22.10;99.90
12413;DHT22;13877;18.896;-99.222;2023-08-31T06:15:46;22.10;99.90
12413;DHT22;13877;18.896;-99.222;2023-08-31T06:18:13;22.00;99.90
12413;DHT22;13877;18.896;-99.222;2023-08-31T06:20:40;21.80;99.90
12413;DHT22;13877;18.896;-99.222;2023-08-31T06:23:07;21.70;99.90
12413;DHT22;13877;18.896;-99.222;2023-08-31T06:25:33;21.60;99.90
12413;DHT22;13877;18.896;-99.222;2023-08-31T06:28:00;21.40;99.90
12413;DHT22;13877;18.896;-99.222;2023-08-31T06:30:27;21.30;99.90
12413;DHT22;13877;18.896;-99.222;2023-08-31T06:32:54;21.20;99.90
12413;DHT22;13877;18.896;-99.222;2023-08-31T06:35:21;21.30;99.90
12413;DHT22;13877;18.896;-99.222;2023-08-31T06:37:47;21.40;99.90
12413;DHT22;13877;18.896;-99.222;2023-08-31T06:40:16;21.40;99.90
12413;DHT22;13877;18.896;-99.222;2023-08-31T06:42:43;21.40;99.90
12413;DHT22;13877;18.896;-99.222;2023-08-31T06:45:10;21.40;99.90
12413;DHT22;13877;18.896;-99.222;2023-08-31T06:47:37;21.40;99.90
12413;DHT22;13877;18.896;-99.222;2023-08-31T06:50:05;21.40;99.90
12413;DHT22;13877;18.896;-99.222;2023-08-31T06:52:32;21.50;99.90
12413;DHT22;13877;18.896;-99.222;2023-08-31T06:55:00;21.60;99.90
12413;DHT22;13877;18.896;-99.222;2023-08-31T06:57:27;21.60;99.90
12413;DHT22;13877;18.896;-99.222;2023-08-31T06:59:54;21.50;99.90
12413;DHT22;13877;18.896;-99.222;2023-08-31T07:02:21;21.50;99.90
12413;DHT22;13877;18.896;-99.222;2023-08-31T07:04:50;21.40;99.90
12413;DHT22;13877;18.896;-99.222;2023-08-31T07:07:18;21.40;99.90
12413;DHT22;13877;18.896;-99.222;2023-08-31T07:09:46;21.30;99.90
12413;DHT22;13877;18.896;-99.222;2023-08-31T07:12:13;21.40;99.90
12413;DHT22;13877;18.896;-99.222;2023-08-31T07:14:40;21.40;99.90
12413;DHT22;13877;18.896;-99.222;2023-08-31T07:17:07;21.50;99.90
12413;DHT22;13877;18.896;-99.222;2023-08-31T07:19:37;21.50;99.90
12413;DHT22;13877;18.896;-99.222;2023-08-31T07:22:04;21.50;99.90
12413;DHT22;13877;18.896;-99.222;2023-08-31T07:24:32;21.50;99.90
12413;DHT22;13877;18.896;-99.222;2023-08-31T07:27:02;21.60;99.90
12413;DHT22;13877;18.896;-99.222;2023-08-31T07:29:29;21.60;99.90
12413;DHT22;13877;18.896;-99.222;2023-08-31T07:31:56;21.70;99.90
12413;DHT22;13877;18.896;-99.222;2023-08-31T07:34:23;21.80;99.90
12413;DHT22;13877;18.896;-99.222;2023-08-31T07:36:50;21.80;99.90
12413;DHT22;13877;18.896;-99.222;2023-08-31T07:39:17;21.70;99.90
12413;DHT22;13877;18.896;-99.222;2023-08-31T07:41:44;21.70;99.90
12413;DHT22;13877;18.896;-99.222;2023-08-31T07:44:11;21.70;99.90
12413;DHT22;13877;18.896;-99.222;2023-08-31T07:46:37;21.70;99.90
12413;DHT22;13877;18.896;-99.222;2023-08-31T07:49:04;21.70;99.90
12413;DHT22;13877;18.896;-99.222;2023-08-31T07:51:31;21.70;99.90
12413;DHT22;13877;18.896;-99.222;2023-08-31T07:53:59;21.70;99.90
12413;DHT22;13877;18.896;-99.222;2023-08-31T07:56:26;21.80;99.90
12413;DHT22;13877;18.896;-99.222;2023-08-31T07:58:53;21.70;99.90
12413;DHT22;13877;18.896;-99.222;2023-08-31T08:01:20;21.90;99.90
12413;DHT22;13877;18.896;-99.222;2023-08-31T08:03:46;22.00;99.90
12413;DHT22;13877;18.896;-99.222;2023-08-31T08:06:13;22.00;99.90
12413;DHT22;13877;18.896;-99.222;2023-08-31T08:08:40;22.00;99.90
12413;DHT22;13877;18.896;-99.222;2023-08-31T08:11:07;22.00;99.90
12413;DHT22;13877;18.896;-99.222;2023-08-31T08:13:34;21.90;99.90
12413;DHT22;13877;18.896;-99.222;2023-08-31T08:16:01;21.90;99.90
12413;DHT22;13877;18.896;-99.222;2023-08-31T08:18:29;21.90;99.90
12413;DHT22;13877;18.896;-99.222;2023-08-31T08:20:56;22.00;99.90
12413;DHT22;13877;18.896;-99.222;2023-08-31T08:23:23;22.00;99.90
12413;DHT22;13877;18.896;-99.222;2023-08-31T08:25:49;21.90;99.90
12413;DHT22;13877;18.896;-99.222;2023-08-31T08:28:16;21.90;99.90
12413;DHT22;13877;18.896;-99.222;2023-08-31T08:30:43;21.90;99.90
12413;DHT22;13877;18.896;-99.222;2023-08-31T08:33:10;21.90;99.90
12413;DHT22;13877;18.896;-99.222;2023-08-31T08:35:38;22.00;99.90
12413;DHT22;13877;18.896;-99.222;2023-08-31T08:38:05;22.00;99.90
12413;DHT22;13877;18.896;-99.222;2023-08-31T08:40:32;21.90;99.90
12413;DHT22;13877;18.896;-99.222;2023-08-31T08:43:01;21.80;99.90
12413;DHT22;13877;18.896;-99.222;2023-08-31T08:45:36;21.80;99.90
12413;DHT22;13877;18.896;-99.222;2023-08-31T08:48:08;21.70;99.90
12413;DHT22;13877;18.896;-99.222;2023-08-31T08:50:36;21.60;99.90
12413;DHT22;13877;18.896;-99.222;2023-08-31T08:53:04;21.60;99.90
12413;DHT22;13877;18.896;-99.222;2023-08-31T08:55:32;21.50;99.90
12413;DHT22;13877;18.896;-99.222;2023-08-31T08:57:59;21.60;99.90
12413;DHT22;13877;18.896;-99.222;2023-08-31T09:00:27;21.60;99.90
12413;DHT22;13877;18.896;-99.222;2023-08-31T09:02:54;21.60;99.90
12413;DHT22;13877;18.896;-99.222;2023-08-31T09:05:21;21.60;99.90
12413;DHT22;13877;18.896;-99.222;2023-08-31T09:08:07;21.60;99.90
12413;DHT22;13877;18.896;-99.222;2023-08-31T09:10:37;21.70;99.90
12413;DHT22;13877;18.896;-99.222;2023-08-31T09:13:10;21.70;99.90
12413;DHT22;13877;18.896;-99.222;2023-08-31T09:15:44;21.80;99.90
12413;DHT22;13877;18.896;-99.222;2023-08-31T09:18:31;21.80;99.90
12413;DHT22;13877;18.896;-99.222;2023-08-31T09:21:00;21.80;99.90
12413;DHT22;13877;18.896;-99.222;2023-08-31T09:23:27;21.90;99.90
12413;DHT22;13877;18.896;-99.222;2023-08-31T09:25:55;21.80;99.90
12413;DHT22;13877;18.896;-99.222;2023-08-31T09:28:24;21.90;99.90
12413;DHT22;13877;18.896;-99.222;2023-08-31T09:31:08;21.80;99.90
12413;DHT22;13877;18.896;-99.222;2023-08-31T09:33:35;21.80;99.90
12413;DHT22;13877;18.896;-99.222;2023-08-31T09:36:05;21.80;99.90
12413;DHT22;13877;18.896;-99.222;2023-08-31T09:38:40;21.80;99.90
12413;DHT22;13877;18.896;-99.222;2023-08-31T09:41:07;21.70;99.90
12413;DHT22;13877;18.896;-99.222;2023-08-31T09:43:34;21.70;99.90
12413;DHT22;13877;18.896;-99.222;2023-08-31T09:46:03;21.60;99.90
12413;DHT22;13877;18.896;-99.222;2023-08-31T09:48:30;21.40;99.90
12413;DHT22;13877;18.896;-99.222;2023-08-31T09:50:57;21.30;99.90
12413;DHT22;13877;18.896;-99.222;2023-08-31T09:53:25;21.30;99.90
12413;DHT22;13877;18.896;-99.222;2023-08-31T09:55:52;21.20;99.90
12413;DHT22;13877;18.896;-99.222;2023-08-31T09:58:21;21.20;99.90
12413;DHT22;13877;18.896;-99.222;2023-08-31T10:00:52;21.20;99.90
12413;DHT22;13877;18.896;-99.222;2023-08-31T10:03:20;21.20;99.90
12413;DHT22;13877;18.896;-99.222;2023-08-31T10:05:49;21.30;99.90
12413;DHT22;13877;18.896;-99.222;2023-08-31T10:08:16;21.20;99.90
12413;DHT22;13877;18.896;-99.222;2023-08-31T10:10:44;21.00;99.90
12413;DHT22;13877;18.896;-99.222;2023-08-31T10:13:11;20.60;99.90
12413;DHT22;13877;18.896;-99.222;2023-08-31T10:15:38;20.60;99.90
12413;DHT22;13877;18.896;-99.222;2023-08-31T10:18:06;20.40;99.90
12413;DHT22;13877;18.896;-99.222;2023-08-31T10:20:34;20.20;99.90
12413;DHT22;13877;18.896;-99.222;2023-08-31T10:23:05;20.10;99.90
12413;DHT22;13877;18.896;-99.222;2023-08-31T10:28:22;19.80;99.90
12413;DHT22;13877;18.896;-99.222;2023-08-31T10:33:42;19.60;99.90
12413;DHT22;13877;18.896;-99.222;2023-08-31T10:36:19;19.40;99.90
12413;DHT22;13877;18.896;-99.222;2023-08-31T10:41:23;19.30;99.90
12413;DHT22;13877;18.896;-99.222;2023-08-31T10:43:52;19.20;99.90
12413;DHT22;13877;18.896;-99.222;2023-08-31T10:46:35;19.10;99.90
12413;DHT22;13877;18.896;-99.222;2023-08-31T10:52:24;18.80;99.90
12413;DHT22;13877;18.896;-99.222;2023-08-31T10:54:33;18.60;99.90
12413;DHT22;13877;18.896;-99.222;2023-08-31T10:57:05;18.60;99.90
12413;DHT22;13877;18.896;-99.222;2023-08-31T10:59:44;18.60;99.90
12413;DHT22;13877;18.896;-99.222;2023-08-31T11:02:36;18.60;99.90
12413;DHT22;13877;18.896;-99.222;2023-08-31T11:05:21;18.60;99.90
12413;DHT22;13877;18.896;-99.222;2023-08-31T11:07:49;18.70;99.90
12413;DHT22;13877;18.896;-99.222;2023-08-31T11:10:26;18.60;99.90
12413;DHT22;13877;18.896;-99.222;2023-08-31T11:12:56;18.60;99.90
12413;DHT22;13877;18.896;-99.222;2023-08-31T11:15:26;18.60;99.90
12413;DHT22;13877;18.896;-99.222;2023-08-31T11:17:54;18.60;99.90
12413;DHT22;13877;18.896;-99.222;2023-08-31T11:20:23;18.60;99.90
12413;DHT22;13877;18.896;-99.222;2023-08-31T11:22:51;18.60;99.90
12413;DHT22;13877;18.896;-99.222;2023-08-31T11:25:21;18.60;99.90
12413;DHT22;13877;18.896;-99.222;2023-08-31T11:28:16;18.60;99.90
12413;DHT22;13877;18.896;-99.222;2023-08-31T11:30:48;18.50;99.90
12413;DHT22;13877;18.896;-99.222;2023-08-31T11:33:15;18.50;99.90
12413;DHT22;13877;18.896;-99.222;2023-08-31T11:35:43;18.50;99.90
12413;DHT22;13877;18.896;-99.222;2023-08-31T11:38:11;18.60;99.90
12413;DHT22;13877;18.896;-99.222;2023-08-31T11:40:38;18.50;99.90
12413;DHT22;13877;18.896;-99.222;2023-08-31T11:43:05;18.50;99.90
12413;DHT22;13877;18.896;-99.222;2023-08-31T11:45:36;18.50;99.90
12413;DHT22;13877;18.896;-99.222;2023-08-31T11:48:04;18.50;99.90
12413;DHT22;13877;18.896;-99.222;2023-08-31T11:50:31;18.50;99.90
12413;DHT22;13877;18.896;-99.222;2023-08-31T11:52:58;18.50;99.90
12413;DHT22;13877;18.896;-99.222;2023-08-31T11:55:25;18.50;99.90
12413;DHT22;13877;18.896;-99.222;2023-08-31T11:57:54;18.50;99.90
12413;DHT22;13877;18.896;-99.222;2023-08-31T12:00:22;18.60;99.90
12413;DHT22;13877;18.896;-99.222;2023-08-31T12:02:59;18.60;99.90
12413;DHT22;13877;18.896;-99.222;2023-08-31T12:05:27;18.60;99.90
12413;DHT22;13877;18.896;-99.222;2023-08-31T12:07:54;18.60;99.90
12413;DHT22;13877;18.896;-99.222;2023-08-31T12:10:23;18.50;99.90
12413;DHT22;13877;18.896;-99.222;2023-08-31T12:12:50;18.50;99.90
12413;DHT22;13877;18.896;-99.222;2023-08-31T12:15:19;18.60;99.90
12413;DHT22;13877;18.896;-99.222;2023-08-31T12:17:48;18.70;99.90
12413;DHT22;13877;18.896;-99.222;2023-08-31T12:20:25;18.70;99.90
12413;DHT22;13877;18.896;-99.222;2023-08-31T12:22:53;18.70;99.90
12413;DHT22;13877;18.896;-99.222;2023-08-31T12:25:23;18.70;99.90
12413;DHT22;13877;18.896;-99.222;2023-08-31T12:27:50;18.70;99.90
12413;DHT22;13877;18.896;-99.222;2023-08-31T12:30:17;18.70;99.90
12413;DHT22;13877;18.896;-99.222;2023-08-31T12:32:43;18.70;99.90
12413;DHT22;13877;18.896;-99.222;2023-08-31T12:35:10;18.70;99.90
12413;DHT22;13877;18.896;-99.222;2023-08-31T12:37:38;18.70;99.90
12413;DHT22;13877;18.896;-99.222;2023-08-31T12:40:05;18.60;99.90
12413;DHT22;13877;18.896;-99.222;2023-08-31T12:42:33;18.70;99.90
12413;DHT22;13877;18.896;-99.222;2023-08-31T12:44:59;18.70;99.90
12413;DHT22;13877;18.896;-99.222;2023-08-31T12:47:26;18.70;99.90
12413;DHT22;13877;18.896;-99.222;2023-08-31T12:49:53;18.70;99.90
12413;DHT22;13877;18.896;-99.222;2023-08-31T12:52:21;18.70;99.90
12413;DHT22;13877;18.896;-99.222;2023-08-31T12:54:48;18.70;99.90
12413;DHT22;13877;18.896;-99.222;2023-08-31T12:57:15;18.70;99.90
12413;DHT22;13877;18.896;-99.222;2023-08-31T12:59:42;18.70;99.90
12413;DHT22;13877;18.896;-99.222;2023-08-31T13:02:08;18.70;99.90
12413;DHT22;13877;18.896;-99.222;2023-08-31T13:04:38;18.90;99.90
12413;DHT22;13877;18.896;-99.222;2023-08-31T13:07:06;18.80;99.90
12413;DHT22;13877;18.896;-99.222;2023-08-31T13:09:32;18.80;99.90
12413;DHT22;13877;18.896;-99.222;2023-08-31T13:12:00;18.80;99.90
12413;DHT22;13877;18.896;-99.222;2023-08-31T13:14:26;18.90;99.90
12413;DHT22;13877;18.896;-99.222;2023-08-31T13:16:53;18.90;99.90
12413;DHT22;13877;18.896;-99.222;2023-08-31T13:19:21;19.00;99.90
12413;DHT22;13877;18.896;-99.222;2023-08-31T13:21:48;19.00;99.90
12413;DHT22;13877;18.896;-99.222;2023-08-31T13:24:15;19.10;99.90
12413;DHT22;13877;18.896;-99.222;2023-08-31T13:26:43;19.20;99.90
12413;DHT22;13877;18.896;-99.222;2023-08-31T13:29:14;19.30;99.90
12413;DHT22;13877;18.896;-99.222;2023-08-31T13:31:41;19.40;99.90
12413;DHT22;13877;18.896;-99.222;2023-08-31T13:34:08;19.40;99.90
12413;DHT22;13877;18.896;-99.222;2023-08-31T13:36:36;19.40;99.90
12413;DHT22;13877;18.896;-99.222;2023-08-31T13:39:03;19.40;99.90
12413;DHT22;13877;18.896;-99.222;2023-08-31T13:41:30;19.50;99.90
12413;DHT22;13877;18.896;-99.222;2023-08-31T13:43:57;19.50;99.90
12413;DHT22;13877;18.896;-99.222;2023-08-31T13:46:23;19.70;99.90
12413;DHT22;13877;18.896;-99.222;2023-08-31T13:48:50;19.70;99.90
12413;DHT22;13877;18.896;-99.222;2023-08-31T13:51:17;19.70;99.90
12413;DHT22;13877;18.896;-99.222;2023-08-31T13:53:44;19.80;99.90
12413;DHT22;13877;18.896;-99.222;2023-08-31T13:56:12;19.90;99.90
12413;DHT22;13877;18.896;-99.222;2023-08-31T13:58:39;19.90;99.90
12413;DHT22;13877;18.896;-99.222;2023-08-31T14:01:07;20.10;99.90
12413;DHT22;13877;18.896;-99.222;2023-08-31T14:03:34;20.20;99.90
12413;DHT22;13877;18.896;-99.222;2023-08-31T14:06:00;20.40;99.90
12413;DHT22;13877;18.896;-99.222;2023-08-31T14:08:27;20.50;99.90
12413;DHT22;13877;18.896;-99.222;2023-08-31T14:10:54;20.50;99.90
12413;DHT22;13877;18.896;-99.222;2023-08-31T14:13:22;20.60;99.90
12413;DHT22;13877;18.896;-99.222;2023-08-31T14:15:49;20.70;99.90
12413;DHT22;13877;18.896;-99.222;2023-08-31T14:18:16;20.80;99.90
12413;DHT22;13877;18.896;-99.222;2023-08-31T14:20:43;20.90;99.90
12413;DHT22;13877;18.896;-99.222;2023-08-31T14:23:09;21.00;99.90
12413;DHT22;13877;18.896;-99.222;2023-08-31T14:25:36;20.70;99.90
12413;DHT22;13877;18.896;-99.222;2023-08-31T14:28:06;20.70;99.90
12413;DHT22;13877;18.896;-99.222;2023-08-31T14:30:35;20.90;99.90
12413;DHT22;13877;18.896;-99.222;2023-08-31T14:33:03;21.10;99.90
12413;DHT22;13877;18.896;-99.222;2023-08-31T14:35:30;21.20;99.90
12413;DHT22;13877;18.896;-99.222;2023-08-31T14:37:58;21.40;99.90
12413;DHT22;13877;18.896;-99.222;2023-08-31T14:40:25;21.70;99.90
12413;DHT22;13877;18.896;-99.222;2023-08-31T14:42:52;21.90;99.90
12413;DHT22;13877;18.896;-99.222;2023-08-31T14:45:19;21.90;99.90
12413;DHT22;13877;18.896;-99.222;2023-08-31T14:47:46;21.80;99.90
12413;DHT22;13877;18.896;-99.222;2023-08-31T14:50:13;21.70;99.90
12413;DHT22;13877;18.896;-99.222;2023-08-31T14:52:39;21.60;99.90
12413;DHT22;13877;18.896;-99.222;2023-08-31T14:55:06;21.60;99.90
12413;DHT22;13877;18.896;-99.222;2023-08-31T14:57:33;21.50;99.90
12413;DHT22;13877;18.896;-99.222;2023-08-31T15:00:00;21.40;99.90
12413;DHT22;13877;18.896;-99.222;2023-08-31T15:02:27;21.30;99.90
12413;DHT22;13877;18.896;-99.222;2023-08-31T15:04:54;21.00;99.90
12413;DHT22;13877;18.896;-99.222;2023-08-31T15:07:21;20.90;99.90
12413;DHT22;13877;18.896;-99.222;2023-08-31T15:09:47;21.00;99.90
12413;DHT22;13877;18.896;-99.222;2023-08-31T15:12:16;21.10;99.90
12413;DHT22;13877;18.896;-99.222;2023-08-31T15:14:43;21.30;99.90
12413;DHT22;13877;18.896;-99.222;2023-08-31T15:17:10;21.30;99.90
12413;DHT22;13877;18.896;-99.222;2023-08-31T15:19:36;21.50;99.90
12413;DHT22;13877;18.896;-99.222;2023-08-31T15:22:03;21.80;99.90
12413;DHT22;13877;18.896;-99.222;2023-08-31T15:24:30;21.90;99.90